Time;durP1;ratioP1;P1;durP2;ratioP2;P2;SDS_P1;SDS_P2;PMS_P1;PMS_P2;Temp;Humidity;BMP_temperature;BMP_pressure;BME280_temperature;BME280_humidity;BME280_pressure;Samples;Min_cycle;Max_cycle;Signal;HPM_P1;HPM_P2
2020/12/15 00:00:20;;;;;;;29.65;18.77;;;18.90;52.20;;;;;;5045990;28;20075;-47
2020/12/15 00:02:45;;;;;;;28.77;18.70;;;18.90;52.20;;;;;;5045533;28;20510;-45
2020/12/15 00:05:11;;;;;;;29.85;18.17;;;18.90;52.20;;;;;;5043861;28;20438;-46
2020/12/15 00:07:37;;;;;;;29.10;19.30;;;18.80;52.20;;;;;;5045823;28;20033;-46
2020/12/15 00:10:02;;;;;;;31.65;20.00;;;18.80;52.20;;;;;;5044824;28;20032;-46
2020/12/15 00:12:28;;;;;;;29.83;17.65;;;18.80;52.20;;;;;;5044981;28;20118;-46
2020/12/15 00:14:53;;;;;;;27.67;18.70;;;18.80;52.20;;;;;;5044578;28;20106;-46
2020/12/15 00:17:19;;;;;;;26.33;17.77;;;18.80;52.20;;;;;;5045497;28;20033;-47
2020/12/15 00:19:44;;;;;;;31.83;19.73;;;18.80;52.20;;;;;;5044681;28;20406;-45
2020/12/15 00:22:10;;;;;;;27.45;18.70;;;18.80;52.20;;;;;;5044672;28;20028;-45
2020/12/15 00:24:35;;;;;;;28.48;18.15;;;18.70;52.20;;;;;;5044603;28;20068;-47
2020/12/15 00:27:01;;;;;;;28.13;18.42;;;18.70;52.20;;;;;;5010851;28;20098;-46
2020/12/15 00:29:26;;;;;;;26.05;17.52;;;18.70;52.20;;;;;;5043992;28;20061;-45
2020/12/15 00:31:52;;;;;;;27.27;17.95;;;18.70;52.20;;;;;;5044154;28;20040;-47
2020/12/15 00:34:17;;;;;;;29.23;17.75;;;18.70;52.20;;;;;;5044529;28;20037;-46
2020/12/15 00:36:43;;;;;;;25.77;16.83;;;18.60;52.20;;;;;;5044977;28;20029;-45
2020/12/15 00:39:08;;;;;;;26.85;17.40;;;18.70;52.20;;;;;;5044401;28;20484;-45
2020/12/15 00:41:34;;;;;;;27.90;17.55;;;18.70;52.20;;;;;;5026598;28;20075;-46
2020/12/15 00:43:59;;;;;;;25.80;16.83;;;18.70;52.20;;;;;;5043667;28;20107;-47
2020/12/15 00:46:25;;;;;;;27.45;16.63;;;18.70;52.20;;;;;;5044753;28;20036;-46
2020/12/15 00:48:50;;;;;;;25.67;16.33;;;18.70;52.20;;;;;;5043928;28;20497;-48
2020/12/15 00:51:17;;;;;;;24.50;15.88;;;18.70;52.20;;;;;;5043820;28;20107;-46
2020/12/15 00:53:43;;;;;;;23.55;16.45;;;18.70;52.20;;;;;;5044245;28;20033;-46
2020/12/15 00:56:08;;;;;;;24.05;16.08;;;18.70;52.10;;;;;;5045391;28;20601;-45
2020/12/15 00:58:35;;;;;;;25.83;15.25;;;18.70;52.20;;;;;;5063638;22;20444;-52
2020/12/15 01:01:01;;;;;;;21.15;15.18;;;18.70;52.10;;;;;;5061124;28;20123;-51
2020/12/15 01:03:27;;;;;;;21.83;15.60;;;18.80;52.20;;;;;;5047479;28;20119;-51
2020/12/15 01:05:52;;;;;;;24.45;15.82;;;18.80;52.20;;;;;;5065094;28;20056;-51
2020/12/15 01:08:18;;;;;;;22.48;14.57;;;18.70;52.10;;;;;;5065073;28;20394;-51
2020/12/15 01:10:43;;;;;;;23.38;14.98;;;18.80;52.20;;;;;;5065441;28;20040;-50
2020/12/15 01:13:08;;;;;;;22.02;14.07;;;18.80;52.10;;;;;;5066033;28;20091;-51
2020/12/15 01:15:34;;;;;;;21.83;13.90;;;18.80;52.10;;;;;;5065613;28;20463;-51
2020/12/15 01:17:59;;;;;;;21.38;14.05;;;18.80;52.10;;;;;;5064916;28;20076;-51
2020/12/15 01:20:25;;;;;;;20.33;13.57;;;18.90;52.20;;;;;;5065584;28;20040;-53
2020/12/15 01:22:50;;;;;;;20.85;14.02;;;18.90;52.20;;;;;;5064188;28;20087;-52
2020/12/15 01:25:16;;;;;;;17.60;12.75;;;18.90;52.20;;;;;;5064807;28;20559;-51
2020/12/15 01:27:41;;;;;;;19.50;14.38;;;18.90;52.80;;;;;;5065887;28;20115;-51
2020/12/15 01:30:07;;;;;;;20.35;13.38;;;18.90;52.20;;;;;;5065738;28;20040;-50
2020/12/15 01:32:33;;;;;;;17.80;12.88;;;18.90;52.10;;;;;;5064726;28;20505;-51
2020/12/15 01:34:59;;;;;;;20.45;13.93;;;18.90;52.10;;;;;;5047199;28;20028;-50
2020/12/15 01:37:24;;;;;;;20.23;14.02;;;18.90;52.10;;;;;;5064676;28;20037;-53
2020/12/15 01:39:50;;;;;;;19.67;13.23;;;18.90;52.10;;;;;;5064881;28;20574;-51
2020/12/15 01:42:15;;;;;;;18.75;12.77;;;18.90;52.00;;;;;;5065266;28;20080;-56
2020/12/15 01:44:41;;;;;;;19.88;12.63;;;18.90;52.00;;;;;;5065183;28;20032;-51
2020/12/15 01:47:06;;;;;;;18.75;12.60;;;18.90;52.00;;;;;;5065315;28;20182;-51
2020/12/15 01:49:32;;;;;;;17.42;12.07;;;18.90;52.00;;;;;;5047414;28;20090;-50
2020/12/15 01:51:58;;;;;;;15.32;10.48;;;18.90;52.00;;;;;;5050254;28;20161;-49
2020/12/15 01:54:24;;;;;;;21.50;13.23;;;18.90;51.90;;;;;;5069320;28;20043;-52
2020/12/15 01:56:49;;;;;;;16.20;12.05;;;18.90;52.00;;;;;;5068520;28;20033;-52
2020/12/15 01:59:15;;;;;;;16.98;12.38;;;18.90;51.90;;;;;;5069741;28;20453;-51
2020/12/15 02:01:47;;;;;;;16.98;12.85;;;18.90;52.00;;;;;;5068176;28;20029;-51
2020/12/15 02:04:12;;;;;;;17.58;11.43;;;18.90;52.00;;;;;;5064358;28;20036;-52
2020/12/15 02:06:38;;;;;;;16.48;11.52;;;18.90;52.00;;;;;;5068085;28;20578;-51
2020/12/15 02:09:06;;;;;;;18.15;11.93;;;18.90;52.00;;;;;;5051440;28;20116;-53
2020/12/15 02:11:32;;;;;;;16.15;11.93;;;18.90;52.00;;;;;;5051474;28;20408;-51
2020/12/15 02:13:57;;;;;;;14.23;10.68;;;18.80;52.00;;;;;;5034701;28;20074;-51
2020/12/15 02:16:23;;;;;;;16.10;11.27;;;18.80;52.00;;;;;;5051024;28;20060;-53
2020/12/15 02:18:48;;;;;;;14.77;10.45;;;18.80;52.00;;;;;;5068494;28;20039;-56
2020/12/15 02:21:14;;;;;;;16.95;11.57;;;18.80;52.00;;;;;;5061543;28;20056;-51
2020/12/15 02:23:39;;;;;;;14.68;10.48;;;18.80;52.00;;;;;;5068526;28;20505;-51
2020/12/15 02:26:06;;;;;;;16.88;11.82;;;18.80;52.00;;;;;;5068869;28;20036;-53
2020/12/15 02:28:31;;;;;;;16.90;10.98;;;18.80;52.00;;;;;;5068281;28;20035;-52
2020/12/15 02:30:57;;;;;;;16.27;10.82;;;18.80;52.00;;;;;;5065567;28;20287;-52
2020/12/15 02:33:22;;;;;;;14.85;11.20;;;18.80;52.00;;;;;;5051055;28;20033;-52
2020/12/15 02:35:49;;;;;;;16.10;11.40;;;18.70;52.00;;;;;;5068813;28;20082;-51
2020/12/15 02:38:14;;;;;;;14.30;10.32;;;18.70;52.00;;;;;;5068981;28;20078;-51
2020/12/15 02:40:40;;;;;;;14.15;10.65;;;18.70;52.00;;;;;;5068022;28;20048;-51
2020/12/15 02:43:05;;;;;;;15.73;10.80;;;18.70;52.00;;;;;;5067597;28;20418;-51
2020/12/15 02:45:31;;;;;;;15.48;11.35;;;18.70;52.00;;;;;;5071318;28;20071;-49
2020/12/15 02:47:56;;;;;;;16.45;10.98;;;18.70;52.00;;;;;;5067923;28;20040;-49
2020/12/15 02:50:23;;;;;;;14.68;10.35;;;18.60;52.00;;;;;;5067746;28;20408;-51
2020/12/15 02:52:48;;;;;;;14.40;10.35;;;18.60;52.00;;;;;;5033538;28;20729;-50
2020/12/15 02:55:14;;;;;;;13.90;9.98;;;18.60;52.00;;;;;;5067845;28;20037;-52
2020/12/15 02:57:39;;;;;;;13.40;9.70;;;18.60;52.00;;;;;;5068100;28;20519;-50
2020/12/15 03:00:08;;;;;;;13.60;10.15;;;18.60;52.00;;;;;;5067384;28;20044;-50
2020/12/15 03:02:34;;;;;;;11.48;8.77;;;18.60;52.00;;;;;;5067524;28;20040;-51
2020/12/15 03:04:59;;;;;;;12.45;8.85;;;18.60;51.90;;;;;;5067653;28;20039;-50
2020/12/15 03:07:25;;;;;;;12.30;8.98;;;18.70;51.90;;;;;;5066813;28;20036;-52
2020/12/15 03:09:50;;;;;;;10.70;8.15;;;18.70;52.60;;;;;;5067984;28;20155;-52
2020/12/15 03:12:18;;;;;;;13.48;8.95;;;18.70;51.90;;;;;;5068069;28;20032;-51
2020/12/15 03:14:43;;;;;;;11.75;8.07;;;18.70;51.90;;;;;;5067593;28;20044;-50
2020/12/15 03:17:09;;;;;;;11.02;8.93;;;18.70;51.90;;;;;;5067773;28;20044;-51
2020/12/15 03:19:34;;;;;;;13.90;8.90;;;18.70;51.90;;;;;;5067413;28;20045;-51
2020/12/15 03:22:00;;;;;;;11.88;7.97;;;18.70;51.80;;;;;;5067546;28;20166;-51
2020/12/15 03:24:25;;;;;;;12.50;8.48;;;18.70;51.90;;;;;;5067273;28;20097;-50
2020/12/15 03:26:51;;;;;;;11.55;8.40;;;18.70;51.90;;;;;;5067976;28;20033;-49
2020/12/15 03:29:16;;;;;;;11.65;8.18;;;18.70;51.90;;;;;;5067246;28;20398;-51
2020/12/15 03:31:42;;;;;;;12.40;8.73;;;18.80;52.00;;;;;;5067231;28;20044;-50
2020/12/15 03:34:07;;;;;;;9.63;7.63;;;18.80;52.00;;;;;;5066879;28;20044;-53
2020/12/15 03:36:33;;;;;;;9.75;8.02;;;18.80;52.00;;;;;;5067477;28;20110;-52
2020/12/15 03:38:58;;;;;;;12.65;8.20;;;18.80;52.00;;;;;;5067212;28;20055;-52
2020/12/15 03:41:24;;;;;;;9.35;7.05;;;18.80;52.00;;;;;;5067412;28;20029;-52
2020/12/15 03:43:49;;;;;;;10.07;7.40;;;18.80;52.00;;;;;;5066653;28;20500;-51
2020/12/15 03:46:15;;;;;;;9.23;7.07;;;18.80;52.00;;;;;;5067436;28;20086;-52
2020/12/15 03:48:40;;;;;;;10.57;6.90;;;18.90;52.00;;;;;;5066435;28;20116;-51
2020/12/15 03:51:06;;;;;;;9.75;6.97;;;18.90;52.60;;;;;;5066415;28;20505;-51
2020/12/15 03:53:31;;;;;;;9.80;7.78;;;18.90;52.00;;;;;;5066571;28;20036;-53
2020/12/15 03:55:57;;;;;;;9.27;6.82;;;18.90;52.00;;;;;;5067169;28;20029;-50
2020/12/15 03:58:22;;;;;;;10.50;7.18;;;18.90;51.90;;;;;;5066681;28;20041;-51
2020/12/15 04:00:48;;;;;;;10.30;7.15;;;18.90;51.80;;;;;;5066638;28;20528;-51
2020/12/15 04:03:13;;;;;;;10.18;7.25;;;18.90;51.90;;;;;;5066525;28;20029;-53
2020/12/15 04:05:39;;;;;;;9.23;7.07;;;18.90;51.90;;;;;;5066875;28;20082;-53
2020/12/15 04:08:04;;;;;;;8.88;7.20;;;18.90;51.80;;;;;;5066584;28;20437;-51
2020/12/15 04:10:30;;;;;;;9.23;6.72;;;18.90;51.80;;;;;;5066751;28;20114;-50
2020/12/15 04:12:55;;;;;;;9.25;6.53;;;18.90;51.80;;;;;;5066115;28;20061;-52
2020/12/15 04:15:21;;;;;;;8.73;6.57;;;18.90;51.70;;;;;;5066481;28;20037;-52
2020/12/15 04:17:46;;;;;;;9.18;6.97;;;18.90;51.60;;;;;;5065762;28;20029;-49
2020/12/15 04:20:12;;;;;;;7.68;6.05;;;18.90;51.60;;;;;;5066401;28;20043;-52
2020/12/15 04:22:38;;;;;;;7.95;6.20;;;18.90;51.60;;;;;;5066333;28;20036;-50
2020/12/15 04:25:04;;;;;;;8.07;5.95;;;18.90;51.60;;;;;;5065856;28;20033;-52
2020/12/15 04:27:29;;;;;;;8.13;5.80;;;18.90;51.50;;;;;;5066654;28;20033;-58
2020/12/15 04:29:55;;;;;;;7.95;6.18;;;18.90;51.60;;;;;;5066610;28;20032;-52
2020/12/15 04:32:21;;;;;;;8.82;6.60;;;18.90;51.60;;;;;;5065709;28;20033;-52
2020/12/15 04:34:46;;;;;;;9.07;6.65;;;18.90;51.70;;;;;;5065502;28;20036;-50
2020/12/15 04:37:12;;;;;;;6.30;5.70;;;18.90;51.70;;;;;;5065713;28;20036;-53
2020/12/15 04:39:37;;;;;;;8.23;5.82;;;18.90;51.60;;;;;;5066049;28;20036;-52
2020/12/15 04:42:03;;;;;;;9.45;6.88;;;18.80;51.60;;;;;;5065172;28;20508;-51
2020/12/15 04:44:29;;;;;;;8.35;6.03;;;18.80;51.60;;;;;;5066730;28;20035;-52
2020/12/15 04:47:02;;;;;;;8.13;5.85;;;18.80;51.60;;;;;;5046918;28;20489;-53
2020/12/15 04:49:28;;;;;;;8.80;6.47;;;18.80;51.60;;;;;;5049376;28;20074;-50
2020/12/15 04:52:02;;;;;;;8.23;6.15;;;18.80;51.60;;;;;;5047362;28;20122;-52
2020/12/15 04:54:32;;;;;;;8.98;6.07;;;18.80;51.60;;;;;;5048183;28;20076;-51
2020/12/15 04:57:02;;;;;;;8.23;6.38;;;18.80;51.70;;;;;;5065730;28;20036;-51
2020/12/15 04:59:31;;;;;;;7.15;5.35;;;18.80;51.70;;;;;;5065103;28;20044;-51
2020/12/15 05:01:58;;;;;;;8.18;5.75;;;18.70;51.60;;;;;;5047417;28;20549;-50
2020/12/15 05:04:24;;;;;;;7.30;6.50;;;18.70;51.60;;;;;;5065596;28;20361;-50
2020/12/15 05:06:53;;;;;;;8.45;5.82;;;18.70;51.70;;;;;;5047042;28;20417;-51
2020/12/15 05:09:24;;;;;;;7.28;6.07;;;18.70;51.70;;;;;;5057394;28;20036;-51
2020/12/15 05:11:50;;;;;;;7.50;5.80;;;18.70;51.70;;;;;;5047127;28;20032;-51
2020/12/15 05:14:15;;;;;;;7.72;5.93;;;18.70;51.70;;;;;;5047185;28;20521;-52
2020/12/15 05:16:40;;;;;;;8.63;6.05;;;18.60;51.60;;;;;;5065163;28;20036;-51
2020/12/15 05:19:06;;;;;;;7.60;5.70;;;18.60;51.60;;;;;;5042777;28;20025;-50
2020/12/15 05:21:31;;;;;;;7.22;5.28;;;18.60;51.60;;;;;;5061942;28;20486;-51
2020/12/15 05:23:58;;;;;;;7.75;5.60;;;18.60;51.60;;;;;;5065485;28;20033;-50
2020/12/15 05:26:24;;;;;;;5.47;4.80;;;18.60;51.60;;;;;;5063403;28;20554;-52
2020/12/15 05:29:03;;;;;;;8.18;5.63;;;18.60;51.60;;;;;;5065092;28;20123;-52
2020/12/15 05:31:29;;;;;;;7.15;5.00;;;18.60;51.60;;;;;;5064793;28;20081;-51
2020/12/15 05:33:55;;;;;;;6.43;5.03;;;18.60;51.50;;;;;;5047252;28;20254;-50
2020/12/15 05:36:21;;;;;;;6.32;4.07;;;18.60;51.60;;;;;;5047364;28;20093;-50
2020/12/15 05:39:00;;;;;;;6.35;5.20;;;18.60;51.50;;;;;;5047152;28;20048;-52
2020/12/15 05:41:26;;;;;;;7.03;4.65;;;18.70;51.60;;;;;;5064962;28;20091;-51
2020/12/15 05:43:51;;;;;;;6.25;4.10;;;18.70;51.60;;;;;;5064571;28;20055;-50
2020/12/15 05:46:20;;;;;;;5.68;4.57;;;18.70;51.60;;;;;;5047249;28;20032;-49
2020/12/15 05:48:45;;;;;;;6.35;4.85;;;18.80;51.70;;;;;;5047208;28;20086;-51
2020/12/15 05:51:11;;;;;;;5.57;4.50;;;18.80;51.70;;;;;;5047062;28;20386;-51
2020/12/15 05:53:36;;;;;;;7.63;4.63;;;18.80;51.70;;;;;;5065554;28;20031;-51
2020/12/15 05:56:04;;;;;;;8.90;4.50;;;18.80;51.80;;;;;;5063853;28;20334;-48
2020/12/15 05:58:30;;;;;;;9.05;4.28;;;18.90;51.80;;;;;;5030534;28;20025;-53
2020/12/15 06:00:55;;;;;;;7.43;4.28;;;18.90;51.70;;;;;;5046636;28;20494;-50
2020/12/15 06:03:21;;;;;;;5.57;4.53;;;18.90;51.80;;;;;;5047306;28;20052;-53
2020/12/15 06:05:46;;;;;;;9.98;4.22;;;19.00;51.80;;;;;;5046046;28;20029;-51
2020/12/15 06:08:12;;;;;;;9.23;5.05;;;19.00;51.80;;;;;;5046960;28;20025;-48
2020/12/15 06:10:37;;;;;;;8.93;4.75;;;19.00;51.80;;;;;;5047498;28;20036;-52
2020/12/15 06:13:03;;;;;;;9.85;5.00;;;19.00;51.60;;;;;;5064815;28;20518;-54
2020/12/15 06:15:29;;;;;;;12.43;4.97;;;19.00;51.60;;;;;;5064479;28;20048;-52
2020/12/15 06:18:01;;;;;;;13.35;5.50;;;19.00;51.60;;;;;;5064185;28;20041;-52
2020/12/15 06:20:35;;;;;;;12.23;6.20;;;19.00;51.50;;;;;;5044115;28;20451;-52
2020/12/15 06:23:00;;;;;;;8.70;5.45;;;19.10;51.60;;;;;;5045502;28;20041;-49
2020/12/15 06:25:36;;;;;;;10.18;6.05;;;19.10;51.50;;;;;;5046942;28;20098;-52
2020/12/15 06:28:11;;;;;;;11.23;5.72;;;19.00;51.40;;;;;;5063957;28;20040;-52
2020/12/15 06:30:43;;;;;;;11.85;5.65;;;19.00;51.40;;;;;;5062614;28;20498;-49
2020/12/15 06:33:10;;;;;;;11.55;5.78;;;19.00;51.40;;;;;;5062518;28;20035;-51
2020/12/15 06:35:36;;;;;;;15.73;5.95;;;19.00;51.40;;;;;;5063272;28;20086;-52
2020/12/15 06:38:04;;;;;;;8.60;6.28;;;19.00;51.40;;;;;;5068551;28;20028;-52
2020/12/15 06:40:59;;;;;;;10.82;6.53;;;19.00;51.40;;;;;;5068950;28;20039;-50
2020/12/15 06:43:29;;;;;;;16.60;7.82;;;19.00;51.50;;;;;;5029975;28;20480;-53
2020/12/15 06:46:07;;;;;;;11.98;6.18;;;19.00;51.50;;;;;;5068505;28;20040;-53
2020/12/15 06:48:33;;;;;;;14.20;6.88;;;19.00;51.50;;;;;;5068802;28;20035;-52
2020/12/15 06:50:59;;;;;;;14.13;6.88;;;19.00;51.40;;;;;;5068216;28;20028;-51
2020/12/15 06:53:24;;;;;;;17.80;8.75;;;19.00;51.40;;;;;;5050782;28;20083;-52
2020/12/15 06:56:09;;;;;;;15.10;8.07;;;19.00;51.50;;;;;;5068640;28;20029;-51
2020/12/15 06:58:35;;;;;;;21.67;10.32;;;19.00;51.50;;;;;;5068884;28;20067;-54
2020/12/15 07:01:03;;;;;;;23.92;10.63;;;19.00;51.50;;;;;;5050594;28;20048;-54
2020/12/15 07:03:42;;;;;;;23.88;9.35;;;18.90;51.40;;;;;;5068534;28;20556;-49
2020/12/15 07:06:14;;;;;;;21.30;10.75;;;18.90;51.40;;;;;;5051885;28;20555;-56
2020/12/15 07:08:40;;;;;;;25.10;11.20;;;18.90;51.30;;;;;;5068128;28;20685;-53
2020/12/15 07:11:05;;;;;;;25.40;10.73;;;18.90;51.90;;;;;;5065562;28;20041;-53
2020/12/15 07:13:31;;;;;;;21.67;10.18;;;18.90;51.30;;;;;;5071272;28;20115;-50
2020/12/15 07:15:56;;;;;;;25.00;10.25;;;18.90;51.30;;;;;;5077690;28;20120;-54
2020/12/15 07:18:22;;;;;;;28.60;10.48;;;18.90;51.20;;;;;;5078311;22;20070;-45
2020/12/15 07:20:48;;;;;;;19.63;9.98;;;18.90;51.20;;;;;;5049651;28;20036;-46
2020/12/15 07:23:15;;;;;;;22.15;9.45;;;18.80;51.10;;;;;;5032650;28;20039;-44
2020/12/15 07:25:41;;;;;;;20.83;9.88;;;18.80;51.10;;;;;;5049409;28;20025;-43
2020/12/15 07:28:07;;;;;;;22.67;9.18;;;18.80;51.00;;;;;;5049236;28;20056;-45
2020/12/15 07:30:36;;;;;;;20.30;8.68;;;18.80;51.00;;;;;;5014775;28;20052;-44
2020/12/15 07:33:02;;;;;;;22.95;8.77;;;18.80;51.00;;;;;;5031156;28;20040;-45
2020/12/15 07:35:29;;;;;;;17.00;8.95;;;18.80;51.00;;;;;;5049173;28;20040;-44
2020/12/15 07:37:56;;;;;;;18.80;8.45;;;18.80;51.00;;;;;;5049052;28;20032;-44
2020/12/15 07:40:22;;;;;;;19.35;9.13;;;18.80;51.00;;;;;;5049122;28;20037;-43
2020/12/15 07:42:54;;;;;;;18.58;8.35;;;18.70;50.90;;;;;;5048442;28;20106;-45
2020/12/15 07:45:20;;;;;;;21.50;8.63;;;18.70;50.90;;;;;;5031268;28;20036;-44
2020/12/15 07:47:46;;;;;;;16.23;8.25;;;18.70;50.90;;;;;;5048614;28;20082;-44
2020/12/15 07:50:13;;;;;;;14.50;8.00;;;18.70;50.90;;;;;;5048680;28;21631;-44
2020/12/15 07:52:39;;;;;;;16.60;7.95;;;18.70;50.90;;;;;;5014461;28;20474;-44
2020/12/15 07:55:04;;;;;;;14.75;8.05;;;18.70;51.00;;;;;;5048519;28;20029;-45
2020/12/15 07:57:31;;;;;;;16.05;7.90;;;18.70;51.00;;;;;;5048596;28;20033;-45
2020/12/15 07:59:58;;;;;;;15.05;7.78;;;18.70;50.90;;;;;;5053433;28;20085;-46
2020/12/15 08:02:24;;;;;;;12.48;6.85;;;18.60;50.90;;;;;;5049211;28;20040;-44
2020/12/15 08:04:49;;;;;;;14.65;7.18;;;18.70;51.00;;;;;;5067303;28;20028;-46
2020/12/15 08:07:15;;;;;;;13.68;7.20;;;18.70;51.00;;;;;;5068278;28;20529;-45
2020/12/15 08:09:41;;;;;;;14.38;8.05;;;18.70;51.00;;;;;;5067035;28;20036;-44
2020/12/15 08:12:06;;;;;;;17.25;7.57;;;18.70;50.90;;;;;;5066343;28;20425;-44
2020/12/15 08:14:32;;;;;;;15.48;7.05;;;18.60;50.90;;;;;;5049680;28;20037;-45
2020/12/15 08:17:11;;;;;;;16.17;7.57;;;18.70;51.00;;;;;;5032935;28;20040;-46
2020/12/15 08:19:36;;;;;;;18.20;9.05;;;18.70;51.10;;;;;;5050442;28;20407;-44
2020/12/15 08:22:02;;;;;;;21.20;9.30;;;18.70;51.10;;;;;;5048904;28;20031;-46
2020/12/15 08:24:27;;;;;;;20.95;9.95;;;18.70;51.20;;;;;;5066380;28;20029;-44
2020/12/15 08:26:54;;;;;;;26.67;10.80;;;18.70;51.30;;;;;;5032630;28;20029;-44
2020/12/15 08:29:20;;;;;;;24.23;10.32;;;18.70;51.30;;;;;;5066931;28;20037;-45
2020/12/15 08:31:45;;;;;;;21.70;10.88;;;18.70;51.30;;;;;;5066482;28;20029;-44
2020/12/15 08:34:19;;;;;;;27.65;10.85;;;18.70;51.30;;;;;;5066699;28;20057;-44
2020/12/15 08:36:46;;;;;;;19.83;10.52;;;18.70;51.30;;;;;;5066989;28;20390;-44
2020/12/15 08:39:12;;;;;;;18.90;10.43;;;18.70;51.30;;;;;;5066290;28;20040;-45
2020/12/15 08:41:55;;;;;;;24.30;11.10;;;18.70;51.30;;;;;;5066374;28;20035;-44
2020/12/15 08:44:20;;;;;;;21.40;11.48;;;18.70;51.30;;;;;;5066373;28;20085;-44
2020/12/15 08:46:46;;;;;;;25.42;10.80;;;18.80;51.30;;;;;;5066380;28;20545;-44
2020/12/15 08:49:15;;;;;;;21.33;10.05;;;18.80;51.30;;;;;;5066219;28;20059;-45
2020/12/15 08:51:48;;;;;;;20.40;10.70;;;18.80;51.30;;;;;;5066120;28;20466;-44
2020/12/15 08:54:13;;;;;;;20.23;10.85;;;18.80;51.30;;;;;;5048438;28;20055;-44
2020/12/15 08:56:39;;;;;;;19.40;9.68;;;18.80;51.30;;;;;;5066281;28;20049;-44
2020/12/15 08:59:11;;;;;;;18.33;9.15;;;18.70;51.30;;;;;;5065972;28;20025;-44
2020/12/15 09:01:37;;;;;;;22.15;9.50;;;18.80;51.20;;;;;;5065727;28;20164;-44
2020/12/15 09:04:03;;;;;;;17.17;9.85;;;18.80;51.20;;;;;;5065998;28;20046;-44
2020/12/15 09:06:32;;;;;;;20.42;9.15;;;18.80;51.10;;;;;;5065784;28;20063;-45
2020/12/15 09:08:58;;;;;;;16.60;8.57;;;18.80;51.10;;;;;;5048399;28;20097;-44
2020/12/15 09:11:23;;;;;;;16.20;8.30;;;18.80;51.10;;;;;;5066053;28;20493;-53
2020/12/15 09:13:53;;;;;;;17.80;9.15;;;18.80;51.10;;;;;;5066454;28;20470;-45
2020/12/15 09:16:33;;;;;;;19.25;9.05;;;18.90;51.10;;;;;;5065835;28;20071;-47
2020/12/15 09:19:12;;;;;;;18.08;8.43;;;18.90;51.10;;;;;;5048238;28;20120;-44
2020/12/15 09:21:38;;;;;;;18.15;8.13;;;18.90;51.10;;;;;;5065573;28;20032;-44
2020/12/15 09:24:04;;;;;;;16.88;8.40;;;18.90;51.10;;;;;;5066313;28;20486;-45
2020/12/15 09:26:29;;;;;;;14.35;8.20;;;18.90;51.00;;;;;;5065407;28;20109;-44
2020/12/15 09:29:05;;;;;;;14.55;7.30;;;18.90;51.00;;;;;;5065994;28;20024;-48
2020/12/15 09:31:31;;;;;;;12.00;7.35;;;18.90;51.10;;;;;;5065735;28;20032;-45
2020/12/15 09:33:56;;;;;;;14.50;7.95;;;18.90;51.00;;;;;;5065825;28;20036;-43
2020/12/15 09:36:22;;;;;;;15.13;7.30;;;18.90;50.90;;;;;;5066512;28;20520;-44
2020/12/15 09:38:48;;;;;;;18.13;7.88;;;18.90;50.90;;;;;;5066153;28;20115;-44
2020/12/15 09:41:13;;;;;;;15.70;6.95;;;18.90;50.90;;;;;;5065342;28;20028;-44
2020/12/15 09:43:39;;;;;;;14.27;6.43;;;18.90;50.90;;;;;;5065626;28;20035;-43
2020/12/15 09:46:04;;;;;;;15.60;7.32;;;18.90;50.70;;;;;;5065938;28;20485;-46
2020/12/15 09:48:30;;;;;;;12.82;6.75;;;18.90;50.70;;;;;;5066030;28;20047;-44
2020/12/15 09:50:56;;;;;;;11.00;6.50;;;18.90;50.80;;;;;;5048126;28;20078;-44
2020/12/15 09:53:22;;;;;;;13.82;6.45;;;18.90;50.70;;;;;;5065884;28;20052;-45
2020/12/15 09:55:47;;;;;;;15.25;6.65;;;18.90;50.70;;;;;;5065664;28;20032;-45
2020/12/15 09:58:13;;;;;;;14.52;6.25;;;18.90;50.70;;;;;;5065317;28;20031;-44
2020/12/15 10:00:38;;;;;;;12.55;6.50;;;18.90;50.70;;;;;;5065692;28;20048;-48
2020/12/15 10:03:04;;;;;;;10.73;6.00;;;18.90;50.70;;;;;;5065237;28;20039;-46
2020/12/15 10:05:30;;;;;;;11.48;5.93;;;18.90;50.70;;;;;;5063964;28;20456;-46
2020/12/15 10:07:55;;;;;;;12.35;6.13;;;18.90;50.70;;;;;;5066094;28;20398;-45
2020/12/15 10:10:21;;;;;;;8.15;5.30;;;18.90;50.70;;;;;;5065576;28;20086;-44
2020/12/15 10:12:46;;;;;;;10.52;5.63;;;18.90;50.70;;;;;;5068001;28;20513;-45
2020/12/15 10:15:13;;;;;;;10.27;5.72;;;18.90;50.70;;;;;;5069291;28;20436;-46
2020/12/15 10:17:39;;;;;;;8.70;5.57;;;18.90;50.70;;;;;;5069428;28;20032;-44
2020/12/15 10:20:04;;;;;;;9.55;5.10;;;18.90;50.80;;;;;;5068981;28;20090;-44
2020/12/15 10:22:30;;;;;;;9.15;5.60;;;18.90;50.70;;;;;;5068823;28;20059;-44
2020/12/15 10:24:56;;;;;;;7.25;5.50;;;18.90;50.70;;;;;;5070079;28;20049;-46
2020/12/15 10:27:21;;;;;;;7.80;5.40;;;18.90;50.70;;;;;;5069106;28;20470;-44
2020/12/15 10:29:47;;;;;;;10.48;5.03;;;18.90;50.70;;;;;;5069333;28;20033;-44
2020/12/15 10:32:12;;;;;;;11.23;5.72;;;18.90;50.70;;;;;;5066743;28;20082;-45
2020/12/15 10:34:38;;;;;;;9.40;5.07;;;18.90;50.70;;;;;;5068256;28;20017;-44
2020/12/15 10:37:03;;;;;;;9.73;4.50;;;18.90;50.70;;;;;;5050450;28;20021;-44
2020/12/15 10:39:29;;;;;;;7.53;4.85;;;18.90;50.70;;;;;;5068718;28;20036;-45
2020/12/15 10:41:54;;;;;;;7.15;5.22;;;18.90;50.70;;;;;;5050081;28;20056;-44
2020/12/15 10:44:20;;;;;;;8.77;4.60;;;19.00;50.70;;;;;;5068652;28;20036;-44
2020/12/15 10:46:45;;;;;;;8.93;4.40;;;18.90;50.70;;;;;;5068684;28;20107;-45
2020/12/15 10:49:11;;;;;;;7.30;4.45;;;18.90;50.70;;;;;;5067973;28;20025;-47
2020/12/15 10:51:39;;;;;;;6.40;4.28;;;18.90;50.70;;;;;;5068246;28;20032;-44
2020/12/15 10:54:05;;;;;;;6.07;4.55;;;19.00;50.80;;;;;;5069061;28;20056;-46
2020/12/15 10:56:31;;;;;;;6.53;4.82;;;19.00;50.70;;;;;;5068857;28;20052;-47
2020/12/15 10:58:56;;;;;;;6.70;4.70;;;18.90;50.60;;;;;;5050873;28;20060;-45
2020/12/15 11:01:23;;;;;;;7.47;4.55;;;18.90;50.70;;;;;;5067756;28;20044;-44
2020/12/15 11:03:49;;;;;;;7.25;4.28;;;18.90;50.70;;;;;;5068277;28;20060;-46
2020/12/15 11:06:14;;;;;;;7.18;4.13;;;18.90;50.70;;;;;;5068436;28;20500;-45
2020/12/15 11:08:40;;;;;;;6.75;4.30;;;18.90;50.70;;;;;;5068255;28;20484;-46
2020/12/15 11:11:05;;;;;;;7.03;4.03;;;18.90;50.70;;;;;;5067399;28;20115;-45
2020/12/15 11:13:31;;;;;;;6.15;3.97;;;18.90;50.70;;;;;;5068486;28;20035;-45
2020/12/15 11:15:56;;;;;;;5.25;4.10;;;18.90;50.60;;;;;;5068114;28;20025;-46
2020/12/15 11:18:22;;;;;;;6.53;4.05;;;18.90;50.60;;;;;;5068077;28;20508;-44
2020/12/15 11:20:47;;;;;;;5.55;3.92;;;18.90;50.60;;;;;;5049568;28;20070;-44
2020/12/15 11:23:13;;;;;;;6.15;4.00;;;18.90;50.60;;;;;;5067844;28;20158;-44
2020/12/15 11:25:38;;;;;;;6.25;3.88;;;18.90;50.60;;;;;;5057580;28;20427;-44
2020/12/15 11:28:04;;;;;;;5.45;3.72;;;18.90;50.70;;;;;;5048367;28;20040;-43
2020/12/15 11:30:29;;;;;;;5.78;4.10;;;18.90;50.60;;;;;;5047851;28;20631;-44
2020/12/15 11:32:55;;;;;;;7.15;3.88;;;18.90;50.60;;;;;;5047628;28;20259;-44
2020/12/15 11:35:20;;;;;;;6.15;4.10;;;18.80;50.70;;;;;;5047856;28;20082;-45
2020/12/15 11:37:46;;;;;;;6.57;3.92;;;18.80;50.60;;;;;;5048182;28;20025;-44
2020/12/15 11:40:12;;;;;;;5.78;3.97;;;18.80;50.60;;;;;;5048022;28;20667;-44
2020/12/15 11:42:38;;;;;;;5.07;3.80;;;18.80;50.60;;;;;;5047298;28;20037;-46
2020/12/15 11:45:07;;;;;;;8.05;4.25;;;18.80;50.60;;;;;;5048212;28;20025;-44
2020/12/15 11:47:32;;;;;;;5.65;3.97;;;18.80;50.60;;;;;;5047400;28;20627;-45
2020/12/15 11:49:59;;;;;;;5.18;3.45;;;18.80;50.60;;;;;;5051434;28;20445;-44
2020/12/15 11:52:25;;;;;;;6.63;4.43;;;18.80;50.70;;;;;;5046828;28;20467;-44
2020/12/15 11:54:50;;;;;;;5.45;3.53;;;18.80;50.70;;;;;;5046900;28;20104;-45
2020/12/15 11:57:17;;;;;;;5.78;3.78;;;18.80;50.70;;;;;;5047264;28;20048;-44
2020/12/15 11:59:43;;;;;;;5.57;3.85;;;18.80;50.70;;;;;;5047534;28;20036;-45
2020/12/15 12:02:08;;;;;;;4.20;3.38;;;18.90;50.60;;;;;;5046638;28;20409;-44
2020/12/15 12:04:34;;;;;;;4.70;3.17;;;18.90;50.60;;;;;;5048122;28;20430;-44
2020/12/15 12:06:59;;;;;;;4.75;3.30;;;19.00;50.60;;;;;;5041253;28;20116;-45
2020/12/15 12:09:25;;;;;;;5.32;3.95;;;19.00;50.50;;;;;;5029376;28;20025;-45
2020/12/15 12:11:50;;;;;;;6.57;3.70;;;19.00;50.50;;;;;;5047343;28;20375;-44
2020/12/15 12:14:18;;;;;;;4.15;3.40;;;19.00;50.50;;;;;;5047031;28;20032;-45
2020/12/15 12:16:44;;;;;;;7.57;3.50;;;19.00;50.50;;;;;;5046822;28;20433;-45
2020/12/15 12:19:09;;;;;;;5.95;3.80;;;19.00;50.30;;;;;;5046966;28;20057;-46
2020/12/15 12:21:35;;;;;;;3.75;3.13;;;19.00;50.30;;;;;;5047624;28;20103;-45
2020/12/15 12:24:00;;;;;;;3.78;3.20;;;19.10;50.40;;;;;;5047050;28;20021;-44
2020/12/15 12:26:26;;;;;;;5.03;3.42;;;19.00;50.30;;;;;;5043532;28;20035;-47
2020/12/15 12:28:53;;;;;;;5.47;3.67;;;19.00;50.30;;;;;;5047208;28;20033;-44
2020/12/15 12:31:19;;;;;;;4.35;3.50;;;19.00;50.30;;;;;;5047004;28;20100;-45
2020/12/15 12:33:44;;;;;;;3.83;3.13;;;18.90;50.30;;;;;;5046386;28;20112;-44